Time;durP1;ratioP1;P1;durP2;ratioP2;P2;SDS_P1;SDS_P2;PMS_P1;PMS_P2;Temp;Humidity;BMP_temperature;BMP_pressure;BME280_temperature;BME280_humidity;BME280_pressure;Samples;Min_cycle;Max_cycle;Signal;HPM_P1;HPM_P2
2022/12/22 03:27:38;;;;;;;0.57;0.57;;;9.80;99.90;9.20;95226.00;;;;5073590;28;20206;-57
2022/12/22 03:30:08;;;;;;;0.50;0.50;;;9.80;99.90;9.20;95223.00;;;;5073336;28;20184;-57
2022/12/22 03:32:35;;;;;;;0.63;0.63;;;9.90;99.90;9.20;95227.00;;;;5073133;28;20640;-57
2022/12/22 03:35:04;;;;;;;0.60;0.60;;;9.90;99.90;9.20;95223.00;;;;5055162;28;20286;-57
2022/12/22 03:37:31;;;;;;;0.60;0.60;;;10.00;99.90;9.20;95237.00;;;;5073060;28;20226;-57
2022/12/22 03:39:58;;;;;;;0.50;0.50;;;9.90;99.90;9.20;95218.00;;;;5073066;28;20187;-57
2022/12/22 03:47:51;;;;;;;0.80;0.80;;;9.80;99.90;9.10;95225.00;;;;5039670;28;20203;-57
2022/12/22 03:50:19;;;;;;;0.70;0.70;;;9.80;99.90;9.00;95227.00;;;;5073258;28;20528;-58
2022/12/22 03:52:46;;;;;;;0.60;0.60;;;9.80;99.90;9.00;95222.00;;;;5073189;28;20212;-57
2022/12/22 03:55:13;;;;;;;0.53;0.53;;;9.70;99.90;9.10;95214.00;;;;5055058;28;20674;-57
2022/12/22 03:57:40;;;;;;;0.70;0.70;;;9.70;99.90;9.10;95212.00;;;;5072910;28;20761;-58
2022/12/22 04:00:09;;;;;;;0.60;0.60;;;9.80;99.90;9.10;95220.00;;;;5072947;28;20194;-57
2022/12/22 04:02:36;;;;;;;1.23;1.23;;;9.70;99.90;9.10;95222.00;;;;5073439;28;20563;-57
2022/12/22 04:05:04;;;;;;;0.97;0.97;;;9.80;99.90;9.00;95219.00;;;;5072881;28;20198;-57
2022/12/22 04:07:32;;;;;;;0.70;0.70;;;9.70;99.90;9.20;95218.00;;;;5072871;28;20191;-57
2022/12/22 04:12:55;;;;;;;0.83;0.83;;;9.90;99.90;9.10;95216.00;;;;5072914;28;20686;-57
2022/12/22 04:15:25;;;;;;;0.73;0.73;;;9.80;99.90;8.90;95221.00;;;;5073115;28;20605;-57
2022/12/22 04:17:52;;;;;;;0.50;0.50;;;9.70;99.90;9.00;95206.00;;;;5072660;28;20207;-57
2022/12/22 04:20:22;;;;;;;0.50;0.50;;;9.70;99.90;9.10;95208.00;;;;5072719;28;20685;-57
2022/12/22 04:22:50;;;;;;;0.50;0.50;;;9.80;99.90;9.20;95204.00;;;;5072664;28;20211;-57
2022/12/22 04:25:18;;;;;;;0.50;0.50;;;9.90;99.90;9.10;95188.00;;;;5072668;28;20183;-57
2022/12/22 04:27:45;;;;;;;0.47;0.47;;;9.80;99.90;9.20;95197.00;;;;5072630;28;20245;-57
2022/12/22 04:30:13;;;;;;;0.50;0.50;;;9.80;99.90;9.10;95193.00;;;;5072827;28;20289;-57
2022/12/22 04:32:40;;;;;;;0.67;0.67;;;9.80;99.90;9.10;95192.00;;;;5072419;28;20231;-57
2022/12/22 04:35:09;;;;;;;0.60;0.60;;;9.80;99.90;9.10;95189.00;;;;5072546;28;20191;-57
2022/12/22 04:37:37;;;;;;;1.10;1.10;;;9.80;99.90;9.20;95178.00;;;;5072482;28;20211;-57
2022/12/22 04:40:07;;;;;;;0.70;0.70;;;9.90;99.90;9.20;95179.00;;;;5072444;28;20191;-57
2022/12/22 04:42:34;;;;;;;0.67;0.67;;;9.90;99.90;9.10;95192.00;;;;5072450;28;20207;-57
2022/12/22 04:45:01;;;;;;;0.83;0.83;;;9.90;99.90;9.10;95178.00;;;;5072494;28;20238;-58
2022/12/22 04:47:28;;;;;;;0.67;0.67;;;9.80;99.90;9.20;95184.00;;;;5072732;28;20253;-57
2022/12/22 04:49:55;;;;;;;0.60;0.60;;;9.90;99.90;9.10;95179.00;;;;5072627;28;20575;-57
2022/12/22 04:52:22;;;;;;;1.37;1.27;;;9.80;99.90;9.00;95164.00;;;;5054436;28;20250;-57
2022/12/22 04:54:49;;;;;;;0.60;0.60;;;9.80;99.90;8.90;95178.00;;;;5072639;28;20539;-57
2022/12/22 04:57:18;;;;;;;0.60;0.60;;;9.70;99.90;9.00;95190.00;;;;5074827;28;20188;-57
2022/12/22 04:59:45;;;;;;;0.60;0.60;;;9.70;99.90;8.90;95179.00;;;;5076171;28;20591;-57
2022/12/22 05:02:12;;;;;;;0.50;0.50;;;9.70;99.90;8.90;95180.00;;;;5057848;28;20239;-57
2022/12/22 05:04:39;;;;;;;0.70;0.70;;;9.60;99.90;8.90;95185.00;;;;5076033;28;20195;-57
2022/12/22 05:07:07;;;;;;;0.50;0.50;;;9.60;99.90;8.90;95180.00;;;;5075744;28;20693;-57
2022/12/22 05:09:34;;;;;;;2.53;1.53;;;9.60;99.90;9.00;95181.00;;;;5075698;28;20183;-57
2022/12/22 05:12:53;;;;;;;4.00;0.93;;;9.70;99.90;8.80;95191.00;;;;5075651;28;20282;-58
2022/12/22 05:14:50;;;;;;;0.57;0.57;;;9.60;99.90;9.00;95181.00;;;;5075490;28;20622;-57
2022/12/22 05:17:17;;;;;;;0.60;0.60;;;9.60;99.90;8.90;95185.00;;;;5075469;28;20183;-59
2022/12/22 05:19:44;;;;;;;0.60;0.60;;;9.60;99.90;8.80;95186.00;;;;5075508;28;20202;-60
2022/12/22 05:22:11;;;;;;;0.60;0.60;;;9.60;99.90;8.90;95181.00;;;;5075631;28;20612;-57
2022/12/22 05:24:38;;;;;;;0.60;0.60;;;9.60;99.90;9.00;95184.00;;;;5075658;28;20233;-57
2022/12/22 05:27:05;;;;;;;0.70;0.70;;;9.70;99.90;8.90;95179.00;;;;5075385;28;20188;-57
2022/12/22 05:29:32;;;;;;;0.50;0.50;;;9.60;99.90;8.90;95195.00;;;;5075557;28;20558;-57
2022/12/22 05:32:01;;;;;;;0.63;0.63;;;9.70;99.90;8.90;95195.00;;;;5075073;28;20219;-58
2022/12/22 05:34:28;;;;;;;0.50;0.50;;;9.60;99.90;8.90;95207.00;;;;5075434;28;20229;-57
2022/12/22 05:36:55;;;;;;;0.70;0.70;;;9.60;99.90;8.80;95204.00;;;;5075241;28;20329;-57
2022/12/22 05:39:22;;;;;;;0.70;0.70;;;9.50;99.90;8.80;95188.00;;;;5075335;28;20212;-57
2022/12/22 05:41:49;;;;;;;0.60;0.60;;;9.60;99.90;8.70;95176.00;;;;5075009;28;20658;-57
2022/12/22 05:44:16;;;;;;;0.50;0.50;;;9.40;99.90;8.80;95189.00;;;;5075071;28;20187;-57
2022/12/22 05:46:43;;;;;;;0.60;0.60;;;9.50;99.90;8.80;95183.00;;;;5075008;28;20187;-57
2022/12/22 05:49:11;;;;;;;0.80;0.80;;;9.60;99.90;8.90;95168.00;;;;5075160;28;20271;-57
2022/12/22 05:51:38;;;;;;;0.70;0.70;;;9.60;99.90;8.90;95170.00;;;;5056844;28;20199;-57
2022/12/22 05:54:05;;;;;;;1.53;1.50;;;9.60;99.90;9.00;95177.00;;;;5056935;28;20653;-57
2022/12/22 05:56:32;;;;;;;0.60;0.60;;;9.70;99.90;9.10;95173.00;;;;5074867;28;20241;-58
2022/12/22 05:58:59;;;;;;;0.60;0.60;;;9.70;99.90;9.00;95173.00;;;;5074775;28;20219;-57
2022/12/22 06:01:26;;;;;;;0.60;0.60;;;9.70;99.90;9.10;95185.00;;;;5056803;28;20191;-57
2022/12/22 06:03:53;;;;;;;0.57;0.57;;;9.70;99.90;9.20;95168.00;;;;5074550;28;20215;-57
2022/12/22 06:06:22;;;;;;;0.80;0.80;;;9.80;99.90;9.00;95181.00;;;;5074956;28;20321;-57
2022/12/22 06:08:49;;;;;;;0.60;0.60;;;9.70;99.90;9.10;95175.00;;;;5074676;28;20195;-57
2022/12/22 06:11:18;;;;;;;1.47;1.17;;;9.70;99.90;9.10;95162.00;;;;5074800;28;20270;-57
2022/12/22 06:13:46;;;;;;;0.50;0.50;;;9.80;99.90;9.10;95173.00;;;;5074378;28;20207;-57
2022/12/22 06:16:13;;;;;;;1.10;1.10;;;9.80;99.90;9.10;95181.00;;;;5074372;28;20188;-57
2022/12/22 06:18:40;;;;;;;0.80;0.80;;;9.80;99.90;9.00;95172.00;;;;5074260;28;20693;-57
2022/12/22 06:21:07;;;;;;;0.60;0.60;;;9.70;99.90;9.00;95177.00;;;;5074327;28;20245;-57
2022/12/22 06:23:35;;;;;;;1.03;1.03;;;9.70;99.90;9.00;95156.00;;;;5074977;28;20220;-57
2022/12/22 06:26:03;;;;;;;9.43;0.87;;;9.70;99.90;9.00;95158.00;;;;5074783;28;20194;-57
2022/12/22 06:28:31;;;;;;;0.70;0.70;;;9.70;99.90;9.10;95152.00;;;;5074126;28;20191;-57
2022/12/22 06:30:58;;;;;;;0.83;0.83;;;9.70;99.90;9.00;95155.00;;;;5074939;28;20194;-57
2022/12/22 06:33:25;;;;;;;1.00;1.00;;;9.70;99.90;9.00;95156.00;;;;5073859;28;20712;-57
2022/12/22 06:35:52;;;;;;;6.43;0.90;;;9.70;99.90;8.90;95165.00;;;;5056084;28;20682;-57
2022/12/22 06:38:19;;;;;;;1.50;1.27;;;9.70;99.90;8.90;95161.00;;;;5073950;28;20557;-57
2022/12/22 06:40:48;;;;;;;0.50;0.50;;;9.70;99.90;9.00;95172.00;;;;5073956;28;20199;-57
2022/12/22 06:43:14;;;;;;;0.80;0.80;;;9.70;99.90;9.00;95165.00;;;;5074269;28;20220;-57
2022/12/22 06:45:44;;;;;;;0.83;0.83;;;9.70;99.90;8.90;95170.00;;;;5073781;28;20188;-57
2022/12/22 06:48:12;;;;;;;0.57;0.57;;;9.60;99.90;9.00;95181.00;;;;5074058;28;20735;-58
2022/12/22 06:50:40;;;;;;;0.70;0.70;;;9.70;99.90;8.80;95179.00;;;;5055826;28;20720;-57
2022/12/22 06:53:08;;;;;;;0.50;0.50;;;9.60;99.90;8.80;95183.00;;;;5073666;28;20207;-57
2022/12/22 06:55:36;;;;;;;0.70;0.70;;;9.50;99.90;8.70;95166.00;;;;5073554;28;20233;-57
2022/12/22 06:58:05;;;;;;;0.60;0.60;;;9.40;99.90;8.60;95169.00;;;;5073548;28;20215;-57
2022/12/22 07:00:33;;;;;;;0.80;0.80;;;9.40;99.90;8.80;95174.00;;;;5073607;28;20191;-57
2022/12/22 07:03:00;;;;;;;0.70;0.70;;;9.50;99.90;8.80;95173.00;;;;5055541;28;20216;-57
2022/12/22 07:05:29;;;;;;;0.60;0.60;;;9.50;99.90;8.60;95166.00;;;;5073506;28;20188;-57
2022/12/22 07:07:56;;;;;;;0.73;0.73;;;9.40;99.90;8.70;95140.00;;;;5073514;28;20190;-58
2022/12/22 07:10:56;;;;;;;0.70;0.70;;;9.40;99.90;8.60;95173.00;;;;5073519;28;20187;-58
2022/12/22 07:13:20;;;;;;;0.50;0.50;;;9.30;99.90;8.60;95174.00;;;;5073689;28;20219;-56
2022/12/22 07:15:48;;;;;;;0.73;0.73;;;9.30;99.90;8.60;95174.00;;;;5073801;28;20255;-56
2022/12/22 07:18:16;;;;;;;0.80;0.80;;;9.40;99.90;8.70;95196.00;;;;5073152;28;20207;-56
2022/12/22 07:20:43;;;;;;;0.60;0.60;;;9.40;99.90;8.70;95214.00;;;;5072951;28;20655;-56
2022/12/22 07:23:10;;;;;;;0.50;0.50;;;9.40;99.90;8.60;95231.00;;;;5073169;28;20212;-56
2022/12/22 07:25:37;;;;;;;0.70;0.70;;;9.30;99.90;8.60;95238.00;;;;5073393;28;20550;-57
2022/12/22 07:28:06;;;;;;;0.80;0.80;;;9.30;99.90;8.60;95243.00;;;;5073093;28;20191;-56
2022/12/22 07:30:35;;;;;;;0.70;0.70;;;9.40;99.90;8.50;95237.00;;;;5073079;28;20195;-56
2022/12/22 07:33:03;;;;;;;0.97;0.90;;;9.20;99.90;8.60;95240.00;;;;5054918;28;20223;-57
2022/12/22 07:35:30;;;;;;;0.50;0.50;;;9.30;99.90;8.40;95222.00;;;;5073307;28;20600;-58
2022/12/22 07:37:57;;;;;;;0.67;0.67;;;9.20;99.90;8.50;95250.00;;;;5073281;28;20188;-58
2022/12/22 07:40:24;;;;;;;0.70;0.70;;;9.20;99.90;8.50;95220.00;;;;5073323;28;20239;-57
2022/12/22 07:42:55;;;;;;;1.40;1.37;;;9.20;99.90;8.50;95177.00;;;;5072842;28;20705;-57
2022/12/22 07:45:23;;;;;;;0.93;0.93;;;9.20;99.90;8.50;95191.00;;;;5073445;28;20182;-57
2022/12/22 07:47:52;;;;;;;1.27;1.17;;;9.20;99.90;8.40;95209.00;;;;5073166;28;20588;-57
2022/12/22 07:50:26;;;;;;;0.50;0.50;;;9.10;99.90;8.40;95211.00;;;;5072990;28;20198;-57
2022/12/22 07:52:55;;;;;;;1.57;1.47;;;9.10;99.90;8.50;95204.00;;;;5073509;28;20218;-57
2022/12/22 07:55:23;;;;;;;0.70;0.70;;;9.20;99.90;8.40;95202.00;;;;5072905;28;20198;-57
2022/12/22 07:57:51;;;;;;;0.57;0.57;;;9.20;99.90;8.50;95201.00;;;;5073069;28;20600;-57
2022/12/22 08:00:19;;;;;;;1.27;1.23;;;9.20;99.90;8.50;95215.00;;;;5073222;28;20675;-56
2022/12/22 08:02:51;;;;;;;0.60;0.60;;;9.20;99.90;8.50;95211.00;;;;5073193;28;20575;-56
2022/12/22 08:05:19;;;;;;;1.03;1.03;;;9.20;99.90;8.40;95212.00;;;;5073364;28;20249;-57
2022/12/22 08:07:49;;;;;;;0.70;0.70;;;9.20;99.90;8.60;95201.00;;;;5072808;28;20543;-57
2022/12/22 08:10:17;;;;;;;0.50;0.50;;;9.30;99.90;8.70;95203.00;;;;5072972;28;20199;-57
2022/12/22 08:12:44;;;;;;;0.90;0.90;;;9.30;99.90;8.70;95178.00;;;;5072685;28;20207;-57
2022/12/22 08:15:12;;;;;;;0.50;0.50;;;;;8.80;95195.00;;;;5072680;28;20191;-57
2022/12/22 08:17:40;;;;;;;0.67;0.67;;;9.50;98.20;8.70;95198.00;;;;5072605;28;20196;-57
2022/12/22 08:20:10;;;;;;;0.50;0.50;;;9.50;99.60;8.90;95187.00;;;;5072744;28;20219;-57
2022/12/22 08:22:37;;;;;;;0.70;0.70;;;9.60;99.40;8.80;95178.00;;;;5072477;28;20717;-57
2022/12/22 08:25:05;;;;;;;0.50;0.50;;;9.50;98.40;8.80;95186.00;;;;5072541;28;20217;-57
2022/12/22 08:27:39;;;;;;;0.50;0.50;;;9.60;98.80;8.80;95178.00;;;;5072512;28;20674;-57
2022/12/22 08:30:08;;;;;;;1.23;1.23;;;9.50;98.30;8.90;95176.00;;;;5073550;28;20209;-55
2022/12/22 08:32:38;;;;;;;0.60;0.60;;;9.60;99.90;8.90;95197.00;;;;5076116;28;20223;-55
2022/12/22 08:35:09;;;;;;;0.50;0.50;;;9.60;96.60;9.00;95214.00;;;;5076410;28;20584;-55
2022/12/22 08:37:41;;;;;;;0.70;0.70;;;9.60;95.90;9.00;95179.00;;;;5076183;28;20176;-55
2022/12/22 08:40:12;;;;;;;0.90;0.90;;;;;9.10;95187.00;;;;5076350;28;20222;-56
2022/12/22 08:42:40;;;;;;;0.50;0.50;;;;;9.20;95197.00;;;;5076037;28;20215;-56
2022/12/22 08:45:10;;;;;;;1.73;1.63;;;9.90;93.90;9.20;95207.00;;;;5076384;28;20547;-56
2022/12/22 08:47:37;;;;;;;1.87;1.73;;;;;9.30;95206.00;;;;5076380;28;20230;-55
2022/12/22 08:50:06;;;;;;;0.70;0.70;;;;;9.50;95188.00;;;;5076078;28;20194;-55
2022/12/22 08:52:34;;;;;;;0.97;0.97;;;10.00;92.10;9.30;95201.00;;;;5075956;28;20302;-56
2022/12/22 08:55:01;;;;;;;0.60;0.60;;;10.00;93.70;9.10;95207.00;;;;5075955;28;20183;-55
2022/12/22 08:57:28;;;;;;;0.87;0.87;;;9.90;95.20;9.10;95212.00;;;;5075848;28;20623;-57
2022/12/22 08:59:55;;;;;;;0.40;0.40;;;9.80;95.20;8.90;95229.00;;;;5075793;28;20226;-57
2022/12/22 09:02:22;;;;;;;0.60;0.60;;;9.60;96.90;8.90;95227.00;;;;5075867;28;20215;-57
2022/12/22 09:04:50;;;;;;;2.20;1.97;;;;;8.70;95239.00;;;;5075831;28;20694;-57
2022/12/22 09:07:17;;;;;;;0.60;0.60;;;;;8.80;95234.00;;;;5057860;28;20677;-57
2022/12/22 09:09:46;;;;;;;0.53;0.53;;;9.60;99.30;8.80;95241.00;;;;5057729;28;20655;-57
2022/12/22 09:12:13;;;;;;;0.73;0.73;;;;;8.90;95245.00;;;;5075707;28;20284;-58
2022/12/22 09:14:41;;;;;;;0.60;0.60;;;;;8.80;95242.00;;;;5075659;28;20195;-58
2022/12/22 09:17:08;;;;;;;1.70;1.60;;;;;8.50;95254.00;;;;5075672;28;20278;-57
2022/12/22 09:19:36;;;;;;;1.60;1.17;;;;;8.60;95250.00;;;;5075474;28;20234;-57
2022/12/22 09:22:03;;;;;;;1.00;0.97;;;;;8.50;95243.00;;;;5075402;28;20238;-57
2022/12/22 09:24:30;;;;;;;6.73;2.00;;;9.20;99.90;8.40;95248.00;;;;5075487;28;20678;-57
2022/12/22 09:26:59;;;;;;;1.03;1.03;;;;;8.30;95245.00;;;;5075682;28;20192;-57
2022/12/22 09:29:26;;;;;;;1.53;1.43;;;;;8.20;95251.00;;;;5075349;28;20192;-57
2022/12/22 09:31:53;;;;;;;0.70;0.70;;;8.90;99.90;8.20;95256.00;;;;5075123;28;20218;-56
2022/12/22 09:34:20;;;;;;;1.10;1.10;;;9.00;99.90;8.30;95239.00;;;;5075309;28;20262;-57
2022/12/22 09:36:48;;;;;;;0.60;0.60;;;8.90;99.90;8.20;95245.00;;;;5075213;28;20190;-57
2022/12/22 09:39:15;;;;;;;0.60;0.60;;;8.90;99.90;8.30;95241.00;;;;5075206;28;20218;-57
2022/12/22 09:41:48;;;;;;;0.57;0.57;;;8.90;99.90;8.20;95240.00;;;;5074588;28;20720;-57
2022/12/22 09:44:24;;;;;;;0.50;0.50;;;8.90;99.90;8.20;95254.00;;;;5075421;28;20298;-57
2022/12/22 09:46:53;;;;;;;0.53;0.53;;;8.80;99.90;8.00;95248.00;;;;5075108;28;20171;-57
2022/12/22 09:49:22;;;;;;;0.60;0.60;;;8.80;99.90;8.30;95249.00;;;;5075830;28;20195;-57
2022/12/22 09:51:52;;;;;;;0.57;0.57;;;;;8.20;95261.00;;;;5075424;28;20192;-57
2022/12/22 09:54:20;;;;;;;0.60;0.60;;;;;8.20;95267.00;;;;5075657;28;20199;-56
2022/12/22 09:56:47;;;;;;;0.53;0.53;;;9.00;99.90;8.20;95262.00;;;;5074903;28;20274;-57
2022/12/22 09:59:18;;;;;;;0.70;0.70;;;;;8.20;95259.00;;;;5074738;28;20227;-57
2022/12/22 10:02:00;;;;;;;0.50;0.50;;;;;8.20;95260.00;;;;5074724;28;20190;-56
2022/12/22 10:04:45;;;;;;;0.60;0.60;;;;;8.40;95259.00;;;;5075236;28;20172;-57
2022/12/22 10:07:22;;;;;;;2.10;1.00;;;;;8.40;95252.00;;;;5074707;28;20183;-59
2022/12/22 10:09:49;;;;;;;0.50;0.50;;;;;8.50;95268.00;;;;5075170;28;20171;-57
2022/12/22 10:12:21;;;;;;;1.30;0.77;;;9.20;99.90;8.50;95263.00;;;;5074483;28;20214;-57
2022/12/22 10:14:53;;;;;;;0.60;0.60;;;;;8.50;95260.00;;;;5074687;28;20535;-56
2022/12/22 10:17:25;;;;;;;0.60;0.60;;;;;8.50;95288.00;;;;5074786;28;20180;-56
2022/12/22 10:19:54;;;;;;;0.50;0.50;;;;;8.50;95269.00;;;;5074795;28;20208;-57
2022/12/22 10:22:27;;;;;;;0.50;0.50;;;;;8.60;95274.00;;;;5074427;28;20226;-57
2022/12/22 10:24:54;;;;;;;0.50;0.50;;;9.30;99.90;8.60;95283.00;;;;5074288;28;20174;-57
2022/12/22 10:27:23;;;;;;;0.50;0.50;;;;;8.70;95272.00;;;;5074299;28;20188;-57
2022/12/22 10:29:52;;;;;;;0.70;0.70;;;;;8.80;95270.00;;;;5074118;28;20237;-58
2022/12/22 10:32:21;;;;;;;0.50;0.50;;;;;8.70;95283.00;;;;5073970;28;20226;-57
2022/12/22 10:35:01;;;;;;;0.50;0.50;;;;;8.90;95279.00;;;;5074019;28;20191;-57
2022/12/22 10:37:35;;;;;;;0.60;0.60;;;9.60;99.90;9.00;95280.00;;;;5073982;28;20248;-57
2022/12/22 10:40:16;;;;;;;0.60;0.60;;;;;9.00;95281.00;;;;5074680;28;20304;-56
2022/12/22 10:42:47;;;;;;;0.50;0.50;;;9.70;99.90;9.20;95279.00;;;;5073769;28;20260;-56
2022/12/22 10:45:21;;;;;;;0.50;0.50;;;;;9.10;95293.00;;;;5073880;28;20696;-57
2022/12/22 10:47:51;;;;;;;0.50;0.50;;;;;9.00;95285.00;;;;5073865;28;20183;-57
2022/12/22 10:50:20;;;;;;;0.53;0.53;;;;;9.10;95282.00;;;;5073669;28;20627;-57
2022/12/22 10:52:53;;;;;;;0.40;0.40;;;;;9.10;95303.00;;;;5073793;28;20273;-57
2022/12/22 10:55:24;;;;;;;0.77;0.77;;;;;9.10;95317.00;;;;5074150;28;20268;-58
2022/12/22 10:58:14;;;;;;;0.53;0.53;;;;;9.10;95310.00;;;;5074183;28;20187;-57
2022/12/22 11:00:44;;;;;;;0.50;0.50;;;;;9.10;95282.00;;;;5073591;28;20689;-57
2022/12/22 11:03:13;;;;;;;0.50;0.50;;;9.70;99.90;8.90;95302.00;;;;5073495;28;20694;-58
2022/12/22 11:05:44;;;;;;;0.60;0.60;;;;;9.00;95308.00;;;;5073607;28;20226;-58
2022/12/22 11:08:17;;;;;;;1.07;0.80;;;;;9.00;95299.00;;;;5073551;28;20637;-58
2022/12/22 11:10:51;;;;;;;0.50;0.50;;;9.70;99.90;9.00;95300.00;;;;5073549;28;20242;-57
2022/12/22 11:13:37;;;;;;;1.17;0.80;;;;;9.10;95313.00;;;;5073922;28;20213;-57
2022/12/22 11:16:14;;;;;;;1.13;1.13;;;;;8.90;95295.00;;;;5073769;28;20623;-58
2022/12/22 11:18:57;;;;;;;0.70;0.70;;;;;9.00;95298.00;;;;5073450;28;20182;-57
2022/12/22 11:21:36;;;;;;;0.60;0.60;;;;;9.00;95296.00;;;;5073512;28;20298;-57
2022/12/22 11:24:16;;;;;;;2.67;1.10;;;;;9.00;95279.00;;;;5073360;28;20175;-58
2022/12/22 11:26:56;;;;;;;0.40;0.40;;;9.70;99.90;9.30;95305.00;;;;5073265;28;20180;-57
2022/12/22 11:29:35;;;;;;;0.60;0.60;;;;;9.50;95310.00;;;;5073821;28;20183;-58
2022/12/22 11:32:22;;;;;;;0.50;0.50;;;;;9.20;95317.00;;;;5073079;28;20218;-58
2022/12/22 11:34:58;;;;;;;0.50;0.50;;;;;9.10;95300.00;;;;5073155;28;20191;-58
2022/12/22 11:37:36;;;;;;;0.60;0.60;;;;;9.10;95288.00;;;;5073211;28;20244;-58
2022/12/22 11:40:13;;;;;;;0.67;0.67;;;;;9.40;95291.00;;;;5073674;28;20196;-58
2022/12/22 11:42:53;;;;;;;0.53;0.53;;;;;9.60;95307.00;;;;5073329;28;20227;-58
2022/12/22 11:45:39;;;;;;;0.70;0.70;;;;;9.70;95295.00;;;;5073403;28;20179;-58
2022/12/22 11:48:34;;;;;;;0.60;0.60;;;;;9.80;95278.00;;;;5055114;28;20186;-58
2022/12/22 11:51:13;;;;;;;0.50;0.50;;;;;9.90;95288.00;;;;5073597;28;20171;-57
2022/12/22 11:54:31;;;;;;;0.50;0.50;;;10.60;97.70;10.30;95282.00;;;;5072913;28;20233;-57
2022/12/22 11:57:15;;;;;;;0.50;0.50;;;11.50;95.70;10.80;95275.00;;;;5011417;28;20197;-57
2022/12/22 11:59:53;;;;;;;0.53;0.53;;;11.10;91.80;10.60;95279.00;;;;5065562;28;20234;-57
2022/12/22 12:03:01;;;;;;;0.50;0.50;;;11.30;93.00;12.20;95273.00;;;;5072856;28;20221;-57
2022/12/22 12:06:09;;;;;;;0.50;0.50;;;;;13.20;95291.00;;;;5068081;28;20195;-58
2022/12/22 12:08:47;;;;;;;0.40;0.40;;;;;11.50;95282.00;;;;5076983;28;20679;-57
2022/12/22 12:11:27;;;;;;;1.90;1.27;;;11.70;88.20;10.70;95284.00;;;;5076962;28;20186;-57
2022/12/22 12:14:03;;;;;;;0.60;0.60;;;;;10.60;95281.00;;;;5076779;28;20213;-58
2022/12/22 12:16:38;;;;;;;0.70;0.70;;;;;10.70;95300.00;;;;5077144;28;20270;-57
2022/12/22 12:19:42;;;;;;;0.70;0.70;;;11.20;93.60;10.70;95277.00;;;;5076818;28;20175;-57
2022/12/22 12:22:24;;;;;;;0.73;0.73;;;11.40;92.50;10.80;95305.00;;;;5076682;28;20214;-57
2022/12/22 12:25:01;;;;;;;0.60;0.60;;;11.20;92.90;10.30;95324.00;;;;5058763;28;20179;-57
2022/12/22 12:27:54;;;;;;;0.50;0.50;;;11.20;94.30;10.40;95318.00;;;;5076598;28;20576;-57
2022/12/22 12:30:24;;;;;;;0.73;0.73;;;10.80;94.40;10.00;95320.00;;;;5076504;28;20191;-57
2022/12/22 12:32:59;;;;;;;0.50;0.50;;;10.70;95.00;10.00;95334.00;;;;5076049;28;20231;-58
2022/12/22 12:35:45;;;;;;;0.70;0.70;;;10.60;96.10;10.40;95313.00;;;;5076829;28;20191;-57
2022/12/22 12:38:23;;;;;;;0.60;0.60;;;;;10.90;95279.00;;;;5076942;28;20638;-57
2022/12/22 12:40:59;;;;;;;0.40;0.40;;;12.50;85.20;12.60;95318.00;;;;5058395;28;20219;-57
2022/12/22 12:43:27;;;;;;;0.50;0.50;;;12.70;82.20;12.30;95325.00;;;;5076213;28;20211;-57
2022/12/22 12:45:55;;;;;;;0.60;0.60;;;12.70;83.30;12.90;95317.00;;;;5076159;28;20624;-57
2022/12/22 12:48:39;;;;;;;0.50;0.50;;;12.80;81.40;12.00;95335.00;;;;5058263;28;20219;-57
2022/12/22 12:51:54;;;;;;;2.63;0.90;;;13.00;81.20;12.30;95320.00;;;;5076143;28;20203;-57
2022/12/22 12:54:41;;;;;;;0.60;0.60;;;12.60;83.30;11.60;95327.00;;;;5034147;28;20181;-57
2022/12/22 12:57:24;;;;;;;0.40;0.40;;;;;12.40;95334.00;;;;5033962;28;20608;-57
2022/12/22 12:59:53;;;;;;;0.40;0.40;;;12.80;80.00;12.50;95321.00;;;;5062752;28;20251;-57
2022/12/22 13:02:39;;;;;;;0.50;0.50;;;12.90;79.90;14.30;95262.00;;;;5076089;28;20215;-57
2022/12/22 13:05:36;;;;;;;0.50;0.50;;;15.60;53.40;15.50;95268.00;;;;5075786;28;20199;-57
2022/12/22 13:08:17;;;;;;;0.43;0.43;;;16.10;49.80;15.70;95267.00;;;;5076062;28;20176;-56
2022/12/22 13:11:03;;;;;;;0.60;0.60;;;;;14.10;95334.00;;;;5075859;28;20184;-56
2022/12/22 13:13:48;;;;;;;0.47;0.47;;;;;14.30;95355.00;;;;5058794;28;20231;-57
2022/12/22 13:16:34;;;;;;;0.70;0.70;;;;;12.60;95376.00;;;;5056902;28;20191;-56
2022/12/22 13:19:25;;;;;;;1.70;0.70;;;;;11.90;95372.00;;;;5076173;28;20191;-56
2022/12/22 13:21:56;;;;;;;0.50;0.50;;;;;11.90;95376.00;;;;5075390;28;20235;-56
2022/12/22 13:24:29;;;;;;;1.70;1.17;;;;;11.40;95387.00;;;;5075601;28;20189;-57
2022/12/22 13:27:05;;;;;;;0.60;0.60;;;;;10.30;95394.00;;;;5075755;28;20577;-57
2022/12/22 13:29:45;;;;;;;0.53;0.53;;;;;10.20;95402.00;;;;5075420;28;20184;-58
2022/12/22 13:32:28;;;;;;;0.70;0.70;;;;;10.70;95386.00;;;;5075418;28;20234;-57
2022/12/22 13:35:13;;;;;;;0.50;0.50;;;;;10.30;95385.00;;;;5075506;28;20187;-57
2022/12/22 13:37:45;;;;;;;0.50;0.50;;;;;11.10;95373.00;;;;5075561;28;20184;-57
2022/12/22 13:40:16;;;;;;;0.50;0.50;;;;;11.40;95312.00;;;;5075651;28;20211;-57
2022/12/22 13:42:49;;;;;;;2.37;1.27;;;12.80;64.80;12.80;95370.00;;;;5075311;28;20223;-58
2022/12/22 13:45:28;;;;;;;0.63;0.63;;;;;12.30;95389.00;;;;5075653;28;20537;-57
2022/12/22 13:47:56;;;;;;;0.93;0.93;;;;;11.40;95381.00;;;;5075244;28;20530;-57
2022/12/22 13:50:27;;;;;;;1.37;1.27;;;;;11.00;95392.00;;;;5074958;28;20206;-57
2022/12/22 13:52:56;;;;;;;0.60;0.60;;;;;11.10;95404.00;;;;5075201;28;20238;-57
2022/12/22 13:55:27;;;;;;;0.60;0.60;;;;;10.80;95388.00;;;;5074884;28;20187;-57
2022/12/22 13:58:00;;;;;;;0.60;0.60;;;;;11.30;95403.00;;;;5075228;28;20188;-57
2022/12/22 14:00:29;;;;;;;0.50;0.50;;;;;10.60;95407.00;;;;5075051;28;20206;-56
2022/12/22 14:02:57;;;;;;;1.03;0.93;;;;;10.60;95405.00;;;;5074630;28;20207;-57
2022/12/22 14:05:31;;;;;;;0.60;0.60;;;;;10.50;95396.00;;;;5074718;28;20192;-57
2022/12/22 14:08:00;;;;;;;0.50;0.50;;;;;10.20;95427.00;;;;5074939;28;20547;-57
2022/12/22 14:10:31;;;;;;;0.53;0.53;;;;;10.20;95400.00;;;;5074784;28;20534;-57
2022/12/22 14:13:05;;;;;;;0.53;0.53;;;;;10.00;95417.00;;;;5074509;28;20211;-57
2022/12/22 14:15:32;;;;;;;0.47;0.47;;;;;10.00;95406.00;;;;5074577;28;20259;-57
2022/12/22 14:18:00;;;;;;;0.83;0.83;;;;;9.60;95428.00;;;;5074356;28;20192;-56
2022/12/22 14:20:35;;;;;;;0.90;0.90;;;10.40;79.90;9.70;95413.00;;;;5074330;28;20215;-57
2022/12/22 14:23:06;;;;;;;0.90;0.90;;;;;9.80;95404.00;;;;5074359;28;20723;-57
2022/12/22 14:25:37;;;;;;;1.03;1.03;;;10.30;85.10;9.50;95403.00;;;;5074853;28;20194;-57
2022/12/22 14:28:15;;;;;;;10.83;0.93;;;10.30;88.70;9.50;95417.00;;;;5073959;28;20172;-58
2022/12/22 14:30:46;;;;;;;0.70;0.70;;;10.20;90.10;9.40;95432.00;;;;5074151;28;20180;-58
2022/12/22 14:33:29;;;;;;;0.70;0.70;;;;;9.40;95448.00;;;;5073954;28;20568;-57
2022/12/22 14:36:17;;;;;;;5.30;1.37;;;;;9.40;95428.00;;;;5074021;28;20179;-57
2022/12/22 14:38:47;;;;;;;2.27;2.07;;;;;9.60;95426.00;;;;5073928;28;20191;-57
2022/12/22 14:41:43;;;;;;;0.77;0.77;;;;;9.60;95434.00;;;;5073788;28;20219;-57
2022/12/22 14:44:22;;;;;;;0.60;0.60;;;;;9.50;95448.00;;;;5073717;28;20195;-57
2022/12/22 14:47:07;;;;;;;0.80;0.80;;;;;9.50;95434.00;;;;5073860;28;20191;-57
2022/12/22 14:49:35;;;;;;;4.53;1.23;;;;;9.50;95435.00;;;;5073811;28;20192;-58
2022/12/22 14:52:08;;;;;;;0.70;0.70;;;;;9.30;95429.00;;;;5073816;28;20207;-57
2022/12/22 14:54:35;;;;;;;0.80;0.80;;;;;9.20;95447.00;;;;5073657;28;20649;-57
2022/12/22 14:57:09;;;;;;;1.30;1.27;;;;;9.50;95442.00;;;;5073843;28;20245;-57
2022/12/22 14:59:38;;;;;;;2.40;1.27;;;;;9.40;95461.00;;;;5055712;28;20190;-57
2022/12/22 15:02:21;;;;;;;0.70;0.70;;;;;9.30;95447.00;;;;5073859;28;20226;-57
2022/12/22 15:04:49;;;;;;;0.50;0.50;;;;;9.30;95458.00;;;;5073602;28;20586;-58
2022/12/22 15:07:19;;;;;;;2.50;2.30;;;;;9.20;95461.00;;;;5073754;28;20561;-58
2022/12/22 15:09:46;;;;;;;1.57;1.47;;;;;9.40;95446.00;;;;5073437;28;20196;-57
2022/12/22 15:12:17;;;;;;;5.63;1.90;;;;;9.20;95448.00;;;;5073197;28;20715;-57
2022/12/22 15:14:47;;;;;;;0.53;0.53;;;;;9.30;95453.00;;;;5073477;28;20649;-57
2022/12/22 15:17:20;;;;;;;0.97;0.97;;;;;9.30;95462.00;;;;5073948;28;20618;-58
2022/12/22 15:19:48;;;;;;;2.20;2.00;;;;;9.30;95467.00;;;;5073911;28;20182;-58
2022/12/22 15:22:16;;;;;;;0.73;0.73;;;;;9.20;95479.00;;;;5073229;28;20230;-57
2022/12/22 15:24:43;;;;;;;0.50;0.50;;;;;9.00;95478.00;;;;5073534;28;20234;-57
2022/12/22 15:27:10;;;;;;;1.07;1.07;;;;;9.10;95485.00;;;;5073185;28;20196;-57
2022/12/22 15:29:38;;;;;;;1.20;1.20;;;;;9.10;95497.00;;;;5073265;28;20258;-58
2022/12/22 15:32:11;;;;;;;0.70;0.70;;;;;9.20;95483.00;;;;5073229;28;20219;-57